createdAt,value
2023-04-30T00:00:44.636Z,6.97
2023-04-30T00:01:44.637Z,6.97
2023-04-30T00:02:44.681Z,6.96
2023-04-30T00:03:44.706Z,6.93
2023-04-30T00:04:44.593Z,6.93
2023-04-30T00:05:44.618Z,6.90
2023-04-30T00:06:44.653Z,6.91
2023-04-30T00:07:44.561Z,6.91
2023-04-30T00:08:44.545Z,6.90
2023-04-30T00:09:44.539Z,6.90
2023-04-30T00:10:44.543Z,6.87
2023-04-30T00:11:44.521Z,6.87
2023-04-30T00:12:44.496Z,6.86
2023-04-30T00:13:44.491Z,6.82
2023-04-30T00:14:44.475Z,6.81
2023-04-30T00:15:44.509Z,6.79
2023-04-30T00:16:44.515Z,6.79
2023-04-30T00:17:44.482Z,6.79
2023-04-30T00:18:44.433Z,6.78
2023-04-30T00:19:44.425Z,6.78
2023-04-30T00:20:44.415Z,6.78
2023-04-30T00:21:44.438Z,6.73
2023-04-30T00:22:44.389Z,6.72
2023-04-30T00:23:44.377Z,6.69
2023-04-30T00:24:44.377Z,6.68
2023-04-30T00:25:44.376Z,6.68
2023-04-30T00:26:44.345Z,6.71
2023-04-30T00:27:44.363Z,6.69
2023-04-30T00:28:44.327Z,6.68
2023-04-30T00:29:44.312Z,6.68
2023-04-30T00:30:44.304Z,6.63
2023-04-30T00:31:44.423Z,6.63
2023-04-30T00:32:44.352Z,6.61
2023-04-30T00:33:44.266Z,6.63
2023-04-30T00:34:44.256Z,6.58
2023-04-30T00:35:44.250Z,6.58
2023-04-30T00:36:44.228Z,6.55
2023-04-30T00:37:44.239Z,6.53
2023-04-30T00:38:44.238Z,6.51
2023-04-30T00:39:44.202Z,6.48
2023-04-30T00:40:44.189Z,6.46
2023-04-30T00:41:44.174Z,6.46
2023-04-30T00:42:44.153Z,6.45
2023-04-30T00:43:44.155Z,6.43
2023-04-30T00:44:44.156Z,6.40
2023-04-30T00:45:44.182Z,6.40
2023-04-30T00:46:44.112Z,6.38
2023-04-30T00:47:44.142Z,6.36
2023-04-30T00:48:44.262Z,6.36
2023-04-30T00:49:44.113Z,6.35
2023-04-30T00:50:44.069Z,6.33
2023-04-30T00:51:44.065Z,6.32
2023-04-30T00:52:44.043Z,6.32
2023-04-30T00:53:44.046Z,6.30
2023-04-30T00:54:44.020Z,6.30
2023-04-30T00:55:44.058Z,6.28
2023-04-30T00:56:44.010Z,6.27
2023-04-30T00:57:43.999Z,6.24
2023-04-30T00:58:43.984Z,6.24
2023-04-30T00:59:43.969Z,6.24
2023-04-30T01:00:43.952Z,6.20
2023-04-30T01:01:44.090Z,6.20
2023-04-30T01:02:43.997Z,6.19
2023-04-30T01:03:43.995Z,6.19
2023-04-30T01:04:43.922Z,6.17
2023-04-30T01:05:43.899Z,6.14
2023-04-30T01:06:43.934Z,6.13
2023-04-30T01:07:43.930Z,6.13
2023-04-30T01:08:43.860Z,6.13
2023-04-30T01:09:43.860Z,6.10
2023-04-30T01:10:43.842Z,6.10
2023-04-30T01:11:43.832Z,6.06
2023-04-30T01:12:43.819Z,6.03
2023-04-30T01:13:43.837Z,6.03
2023-04-30T01:14:43.797Z,6.02
2023-04-30T01:15:43.831Z,6.01
2023-04-30T01:16:43.775Z,5.99
2023-04-30T01:17:43.782Z,5.99
2023-04-30T01:18:43.788Z,5.99
2023-04-30T01:19:43.775Z,5.99
2023-04-30T01:20:43.729Z,5.96
2023-04-30T01:21:43.744Z,5.93
2023-04-30T01:22:43.705Z,5.92
2023-04-30T01:23:43.698Z,5.90
2023-04-30T01:24:43.691Z,5.88
2023-04-30T01:25:43.692Z,5.87
2023-04-30T01:26:43.662Z,5.84
2023-04-30T01:27:43.653Z,5.85
2023-04-30T01:28:43.633Z,5.85
2023-04-30T01:29:43.629Z,5.85
2023-04-30T01:30:44.083Z,5.87
2023-04-30T01:31:43.689Z,5.87
2023-04-30T01:32:43.699Z,5.87
2023-04-30T01:33:43.583Z,5.88
2023-04-30T01:34:43.572Z,5.87
2023-04-30T01:35:43.561Z,5.85
2023-04-30T01:36:43.575Z,5.85
2023-04-30T01:37:43.538Z,5.84
2023-04-30T01:38:43.523Z,5.83
2023-04-30T01:39:43.515Z,5.83
2023-04-30T01:40:43.513Z,5.84
2023-04-30T01:41:43.494Z,5.84
2023-04-30T01:42:43.514Z,5.84
2023-04-30T01:43:43.474Z,5.83
2023-04-30T01:44:43.462Z,5.84
2023-04-30T01:45:43.448Z,5.84
2023-04-30T01:46:43.576Z,5.81
2023-04-30T01:47:43.462Z,5.80
2023-04-30T01:48:43.436Z,5.80
2023-04-30T01:49:43.406Z,5.78
2023-04-30T01:50:43.397Z,5.77
2023-04-30T01:51:43.434Z,5.77
2023-04-30T01:52:43.368Z,5.75
2023-04-30T01:53:43.455Z,5.74
2023-04-30T01:54:43.347Z,5.70
2023-04-30T01:55:43.332Z,5.70
2023-04-30T01:56:43.348Z,5.69
2023-04-30T01:57:43.310Z,5.67
2023-04-30T01:58:43.300Z,5.67
2023-04-30T01:59:43.287Z,5.65
2023-04-30T02:00:43.276Z,5.62
2023-04-30T02:01:43.302Z,5.60
2023-04-30T02:02:43.312Z,5.59
2023-04-30T02:03:43.314Z,5.58
2023-04-30T02:04:43.230Z,5.56
2023-04-30T02:05:43.217Z,5.58
2023-04-30T02:06:43.279Z,5.56
2023-04-30T02:07:43.195Z,5.56
2023-04-30T02:08:43.187Z,5.55
2023-04-30T02:09:43.170Z,5.51
2023-04-30T02:10:43.169Z,5.51
2023-04-30T02:11:43.173Z,5.49
2023-04-30T02:12:43.140Z,5.48
2023-04-30T02:13:43.118Z,5.48
2023-04-30T02:14:43.115Z,5.48
2023-04-30T02:15:43.217Z,5.48
2023-04-30T02:16:43.169Z,5.47
2023-04-30T02:17:43.150Z,5.45
2023-04-30T02:18:43.072Z,5.47
2023-04-30T02:19:43.053Z,5.47
2023-04-30T02:20:43.053Z,5.45
2023-04-30T02:21:43.067Z,5.42
2023-04-30T02:22:43.027Z,5.41
2023-04-30T02:23:43.013Z,5.40
2023-04-30T02:24:43.004Z,5.38
2023-04-30T02:25:42.990Z,5.38
2023-04-30T02:26:42.994Z,5.38
2023-04-30T02:27:42.964Z,5.37
2023-04-30T02:28:42.968Z,5.37
2023-04-30T02:29:42.948Z,5.33
2023-04-30T02:30:42.944Z,5.33
2023-04-30T02:31:43.023Z,5.32
2023-04-30T02:32:42.951Z,5.30
2023-04-30T02:33:42.898Z,5.27
2023-04-30T02:34:42.889Z,5.27
2023-04-30T02:35:43.018Z,5.29
2023-04-30T02:36:42.889Z,5.29
2023-04-30T02:37:42.852Z,5.27
2023-04-30T02:38:42.857Z,5.27
2023-04-30T02:39:42.829Z,5.26
2023-04-30T02:40:42.822Z,5.23
2023-04-30T02:41:42.825Z,5.22
2023-04-30T02:42:42.799Z,5.22
2023-04-30T02:43:42.788Z,5.22
2023-04-30T02:44:42.772Z,5.23
2023-04-30T02:45:42.991Z,5.23
2023-04-30T02:46:42.773Z,5.22
2023-04-30T02:47:42.764Z,5.20
2023-04-30T02:48:42.745Z,5.20
2023-04-30T02:49:42.728Z,5.19
2023-04-30T02:50:42.759Z,5.19
2023-04-30T02:51:42.708Z,5.15
2023-04-30T02:52:42.677Z,5.17
2023-04-30T02:53:42.668Z,5.19
2023-04-30T02:54:42.659Z,5.29
2023-04-30T02:55:42.649Z,5.35
2023-04-30T02:56:42.660Z,5.44
2023-04-30T02:57:42.631Z,5.51
2023-04-30T02:58:42.615Z,5.52
2023-04-30T02:59:42.601Z,5.58
2023-04-30T03:00:42.593Z,5.60
2023-04-30T03:01:42.647Z,5.63
2023-04-30T03:02:42.647Z,5.65
2023-04-30T03:03:42.591Z,5.62
2023-04-30T03:04:42.575Z,5.63
2023-04-30T03:05:42.536Z,5.66
2023-04-30T03:06:42.598Z,5.65
2023-04-30T03:07:42.507Z,5.63
2023-04-30T03:08:42.510Z,5.62
2023-04-30T03:09:42.484Z,5.60
2023-04-30T03:10:42.483Z,5.60
2023-04-30T03:11:42.482Z,5.59
2023-04-30T03:12:42.456Z,5.55
2023-04-30T03:13:42.439Z,5.52
2023-04-30T03:14:42.434Z,5.55
2023-04-30T03:15:42.418Z,5.52
2023-04-30T03:16:42.480Z,5.52
2023-04-30T03:17:45.368Z,5.52
2023-04-30T03:18:42.383Z,5.55
2023-04-30T03:19:42.391Z,5.56
2023-04-30T03:20:42.379Z,5.55
2023-04-30T03:21:42.382Z,5.55
2023-04-30T03:22:42.342Z,5.55
2023-04-30T03:23:42.332Z,5.52
2023-04-30T03:24:42.329Z,5.52
2023-04-30T03:25:42.307Z,5.65
2023-04-30T03:26:42.329Z,5.67
2023-04-30T03:27:42.284Z,5.69
2023-04-30T03:28:42.287Z,5.66
2023-04-30T03:29:42.261Z,5.63
2023-04-30T03:30:42.255Z,5.63
2023-04-30T03:31:42.311Z,5.59
2023-04-30T03:32:42.295Z,5.59
2023-04-30T03:33:42.255Z,5.58
2023-04-30T03:34:42.221Z,5.58
2023-04-30T03:35:42.193Z,5.55
2023-04-30T03:36:42.212Z,5.52
2023-04-30T03:37:42.182Z,5.51
2023-04-30T03:38:42.172Z,5.51
2023-04-30T03:39:42.152Z,5.51
2023-04-30T03:40:42.146Z,5.51
2023-04-30T03:41:42.145Z,5.48
2023-04-30T03:42:42.144Z,5.47
2023-04-30T03:43:42.104Z,5.44
2023-04-30T03:44:42.100Z,5.44
2023-04-30T03:45:42.311Z,5.42
2023-04-30T03:46:42.157Z,5.41
2023-04-30T03:47:42.094Z,5.41
2023-04-30T03:48:42.055Z,5.41
2023-04-30T03:49:42.052Z,5.38
2023-04-30T03:50:42.027Z,5.38
2023-04-30T03:51:42.253Z,5.40
2023-04-30T03:52:42.035Z,5.41
2023-04-30T03:53:42.020Z,5.42
2023-04-30T03:54:42.001Z,5.47
2023-04-30T03:55:41.976Z,5.48
2023-04-30T03:56:41.982Z,5.49
2023-04-30T03:57:41.966Z,5.51
2023-04-30T03:58:41.972Z,5.49
2023-04-30T03:59:41.924Z,5.49
2023-04-30T04:00:41.942Z,5.51
2023-04-30T04:01:41.965Z,5.49
2023-04-30T04:02:41.951Z,5.48
2023-04-30T04:03:41.908Z,5.49
2023-04-30T04:04:41.878Z,5.49
2023-04-30T04:05:41.869Z,5.48
2023-04-30T04:06:41.981Z,5.49
2023-04-30T04:07:41.842Z,5.51
2023-04-30T04:08:41.847Z,5.55
2023-04-30T04:09:41.821Z,5.56
2023-04-30T04:10:41.810Z,5.56
2023-04-30T04:11:41.818Z,5.55
2023-04-30T04:12:41.777Z,5.55
2023-04-30T04:13:41.776Z,5.55
2023-04-30T04:14:41.764Z,5.55
2023-04-30T04:15:41.834Z,5.55
2023-04-30T04:16:41.901Z,5.58
2023-04-30T04:17:41.779Z,5.56
2023-04-30T04:18:41.716Z,5.56
2023-04-30T04:19:41.721Z,5.56
2023-04-30T04:20:41.703Z,5.55
2023-04-30T04:21:41.712Z,5.55
2023-04-30T04:22:41.684Z,5.55
2023-04-30T04:23:41.672Z,5.55
2023-04-30T04:24:41.668Z,5.56
2023-04-30T04:25:41.650Z,5.55
2023-04-30T04:26:41.658Z,5.55
2023-04-30T04:27:41.612Z,5.55
2023-04-30T04:28:41.606Z,5.56
2023-04-30T04:29:41.606Z,5.59
2023-04-30T04:30:41.583Z,5.56
2023-04-30T04:31:41.753Z,5.59
2023-04-30T04:32:41.613Z,5.59
2023-04-30T04:33:41.548Z,5.60
2023-04-30T04:34:41.533Z,5.62
2023-04-30T04:35:41.545Z,5.62
2023-04-30T04:36:41.549Z,5.63
2023-04-30T04:37:41.500Z,5.63
2023-04-30T04:38:41.482Z,5.65
2023-04-30T04:39:41.473Z,5.63
2023-04-30T04:40:41.457Z,5.65
2023-04-30T04:41:41.477Z,5.66
2023-04-30T04:42:41.442Z,5.67
2023-04-30T04:43:41.433Z,5.69
2023-04-30T04:44:41.420Z,5.73
2023-04-30T04:45:41.413Z,5.77
2023-04-30T04:46:41.448Z,5.77
2023-04-30T04:47:41.471Z,5.81
2023-04-30T04:48:41.384Z,5.87
2023-04-30T04:49:41.370Z,5.92
2023-04-30T04:50:41.369Z,5.93
2023-04-30T04:51:41.369Z,5.92
2023-04-30T04:52:41.340Z,5.95
2023-04-30T04:53:41.305Z,6.01
2023-04-30T04:54:41.302Z,6.03
2023-04-30T04:55:41.305Z,6.06
2023-04-30T04:56:41.290Z,6.13
2023-04-30T04:57:41.268Z,6.19
2023-04-30T04:58:41.268Z,6.24
2023-04-30T04:59:41.254Z,6.28
2023-04-30T05:00:41.241Z,6.33
2023-04-30T05:01:41.309Z,6.36
2023-04-30T05:02:41.318Z,6.39
2023-04-30T05:03:41.315Z,6.43
2023-04-30T05:04:41.184Z,6.48
2023-04-30T05:05:41.188Z,6.51
2023-04-30T05:06:41.389Z,6.53
2023-04-30T05:07:41.164Z,6.57
2023-04-30T05:08:41.151Z,6.58
2023-04-30T05:09:41.140Z,6.63
2023-04-30T05:10:41.122Z,6.68
2023-04-30T05:11:41.143Z,6.73
2023-04-30T05:12:41.097Z,6.78
2023-04-30T05:13:41.090Z,6.81
2023-04-30T05:14:41.074Z,6.87
2023-04-30T05:15:41.109Z,6.89
2023-04-30T05:16:41.112Z,6.91
2023-04-30T05:17:41.118Z,6.99
2023-04-30T05:18:41.031Z,6.99
2023-04-30T05:19:41.230Z,7.04
2023-04-30T05:20:41.005Z,7.07
2023-04-30T05:21:41.026Z,7.12
2023-04-30T05:22:40.991Z,7.15
2023-04-30T05:23:40.973Z,7.19
2023-04-30T05:24:40.957Z,7.24
2023-04-30T05:25:40.968Z,7.27
2023-04-30T05:26:40.997Z,7.32
2023-04-30T05:27:40.936Z,7.36
2023-04-30T05:28:40.910Z,7.41
2023-04-30T05:29:40.916Z,7.42
2023-04-30T05:30:40.976Z,7.47
2023-04-30T05:31:41.004Z,7.51
2023-04-30T05:32:40.887Z,7.54
2023-04-30T05:33:40.865Z,7.62
2023-04-30T05:34:40.849Z,7.69
2023-04-30T05:35:40.836Z,7.74
2023-04-30T05:36:41.942Z,7.77
2023-04-30T05:37:40.817Z,7.84
2023-04-30T05:38:40.807Z,7.88
2023-04-30T05:39:40.810Z,7.92
2023-04-30T05:40:40.794Z,7.94
2023-04-30T05:41:40.790Z,7.99
2023-04-30T05:42:40.781Z,8.00
2023-04-30T05:43:40.753Z,8.02
2023-04-30T05:44:40.733Z,8.06
2023-04-30T05:45:40.736Z,8.07
2023-04-30T05:46:40.733Z,8.13
2023-04-30T05:47:40.756Z,8.18
2023-04-30T05:48:40.687Z,8.24
2023-04-30T05:49:40.681Z,8.27
2023-04-30T05:50:40.666Z,8.34
2023-04-30T05:51:40.681Z,8.37
2023-04-30T05:52:40.638Z,8.36
2023-04-30T05:53:40.636Z,8.42
2023-04-30T05:54:40.619Z,8.50
2023-04-30T05:55:40.614Z,8.52
2023-04-30T05:56:40.617Z,8.57
2023-04-30T05:57:40.616Z,8.61
2023-04-30T05:58:40.574Z,8.65
2023-04-30T05:59:40.590Z,8.70
2023-04-30T06:00:40.556Z,8.76
2023-04-30T06:01:40.592Z,8.78
2023-04-30T06:02:40.592Z,8.82
2023-04-30T06:03:40.549Z,8.91
2023-04-30T06:04:40.506Z,8.97
2023-04-30T06:05:40.585Z,9.04
2023-04-30T06:06:40.587Z,9.12
2023-04-30T06:07:40.481Z,9.19
2023-04-30T06:08:40.461Z,9.23
2023-04-30T06:09:40.454Z,9.30
2023-04-30T06:10:40.449Z,9.31
2023-04-30T06:11:42.410Z,9.34
2023-04-30T06:12:40.434Z,9.35
2023-04-30T06:13:40.411Z,9.37
2023-04-30T06:14:40.401Z,9.41
2023-04-30T06:15:40.408Z,9.41
2023-04-30T06:16:40.441Z,9.41
2023-04-30T06:17:40.409Z,9.48
2023-04-30T06:18:40.359Z,9.48
2023-04-30T06:19:40.346Z,9.55
2023-04-30T06:20:40.326Z,9.58
2023-04-30T06:21:40.353Z,9.68
2023-04-30T06:22:40.308Z,9.75
2023-04-30T06:23:40.303Z,9.83
2023-04-30T06:24:40.280Z,9.91
2023-04-30T06:25:40.400Z,9.95
2023-04-30T06:26:40.281Z,9.98
2023-04-30T06:27:40.252Z,9.92
2023-04-30T06:28:40.235Z,9.93
2023-04-30T06:29:40.235Z,9.99
2023-04-30T06:30:40.212Z,10.06
2023-04-30T06:31:40.275Z,10.09
2023-04-30T06:32:40.208Z,10.14
2023-04-30T06:33:40.187Z,10.16
2023-04-30T06:34:40.164Z,10.25
2023-04-30T06:35:40.160Z,10.32
2023-04-30T06:36:40.163Z,10.36
2023-04-30T06:37:40.133Z,10.38
2023-04-30T06:38:40.118Z,10.43
2023-04-30T06:39:40.110Z,10.51
2023-04-30T06:40:40.101Z,10.57
2023-04-30T06:41:40.128Z,10.69
2023-04-30T06:42:40.076Z,10.78
2023-04-30T06:43:40.095Z,10.80
2023-04-30T06:44:40.059Z,10.75
2023-04-30T06:45:40.061Z,10.68
2023-04-30T06:46:40.195Z,10.69
2023-04-30T06:47:40.117Z,10.73
2023-04-30T06:48:40.045Z,10.78
2023-04-30T06:49:39.998Z,10.80
2023-04-30T06:50:40.005Z,10.73
2023-04-30T06:51:39.999Z,10.81
2023-04-30T06:52:39.954Z,10.88
2023-04-30T06:53:39.957Z,10.94
2023-04-30T06:54:39.939Z,10.98
2023-04-30T06:55:39.932Z,10.94
2023-04-30T06:56:39.942Z,10.94
2023-04-30T06:57:39.920Z,11.05
2023-04-30T06:58:39.906Z,11.17
2023-04-30T06:59:39.884Z,11.26
2023-04-30T07:00:39.876Z,11.27
2023-04-30T07:01:39.915Z,11.30
2023-04-30T07:02:39.972Z,11.31
2023-04-30T07:03:39.929Z,11.17
2023-04-30T07:04:39.826Z,11.12
2023-04-30T07:05:39.820Z,11.21
2023-04-30T07:06:39.959Z,11.27
2023-04-30T07:07:39.791Z,11.35
2023-04-30T07:08:39.776Z,11.36
2023-04-30T07:09:39.781Z,11.33
2023-04-30T07:10:39.753Z,11.35
2023-04-30T07:11:39.765Z,11.38
2023-04-30T07:12:39.851Z,11.35
2023-04-30T07:13:39.743Z,11.36
2023-04-30T07:14:39.725Z,11.39
2023-04-30T07:15:40.398Z,11.38
2023-04-30T07:16:39.706Z,11.36
2023-04-30T07:17:39.774Z,11.39
2023-04-30T07:18:39.733Z,11.35
2023-04-30T07:19:39.738Z,11.44
2023-04-30T07:20:39.648Z,11.42
2023-04-30T07:21:39.657Z,11.42
2023-04-30T07:22:39.622Z,11.49
2023-04-30T07:23:39.614Z,11.59
2023-04-30T07:24:39.595Z,11.64
2023-04-30T07:25:39.589Z,11.67
2023-04-30T07:26:39.589Z,11.67
2023-04-30T07:27:39.567Z,11.70
2023-04-30T07:28:39.559Z,11.63
2023-04-30T07:29:39.540Z,11.62
2023-04-30T07:30:39.527Z,11.69
2023-04-30T07:31:39.606Z,11.72
2023-04-30T07:32:39.537Z,11.77
2023-04-30T07:33:39.501Z,11.87
2023-04-30T07:34:39.487Z,12.03
2023-04-30T07:35:39.471Z,12.18
2023-04-30T07:36:39.504Z,12.22
2023-04-30T07:37:41.209Z,12.15
2023-04-30T07:38:39.459Z,12.13
2023-04-30T07:39:39.426Z,12.21
2023-04-30T07:40:39.457Z,12.34
2023-04-30T07:41:39.430Z,12.31
2023-04-30T07:42:39.386Z,12.21
2023-04-30T07:43:39.386Z,12.25
2023-04-30T07:44:39.362Z,12.25
2023-04-30T07:45:39.365Z,12.44
2023-04-30T07:46:39.457Z,12.52
2023-04-30T07:47:39.402Z,12.61
2023-04-30T07:48:39.331Z,12.79
2023-04-30T07:49:39.323Z,12.99
2023-04-30T07:50:39.304Z,13.09
2023-04-30T07:51:39.315Z,13.14
2023-04-30T07:52:39.287Z,13.21
2023-04-30T07:53:39.268Z,13.29
2023-04-30T07:54:39.259Z,13.28
2023-04-30T07:55:39.249Z,13.31
2023-04-30T07:56:39.259Z,13.39
2023-04-30T07:57:39.227Z,13.13
2023-04-30T07:58:39.207Z,13.10
2023-04-30T07:59:39.210Z,13.13
2023-04-30T08:00:39.202Z,13.22
2023-04-30T08:01:39.264Z,13.14
2023-04-30T08:02:39.288Z,13.19
2023-04-30T08:03:39.271Z,13.31
2023-04-30T08:04:39.140Z,13.39
2023-04-30T08:05:39.134Z,13.38
2023-04-30T08:06:39.321Z,13.38
2023-04-30T08:07:39.109Z,13.39
2023-04-30T08:08:39.105Z,13.36
2023-04-30T08:09:39.096Z,13.27
2023-04-30T08:10:39.069Z,13.32
2023-04-30T08:11:39.090Z,13.38
2023-04-30T08:12:39.063Z,13.38
2023-04-30T08:13:39.052Z,13.48
2023-04-30T08:14:39.046Z,13.62
2023-04-30T08:15:39.027Z,13.80
2023-04-30T08:16:39.121Z,13.75
2023-04-30T08:17:39.024Z,13.63
2023-04-30T08:18:38.989Z,13.59
2023-04-30T08:19:38.985Z,13.65
2023-04-30T08:20:38.961Z,13.75
2023-04-30T08:21:38.978Z,13.75
2023-04-30T08:22:38.951Z,13.93
2023-04-30T08:23:38.930Z,14.06
2023-04-30T08:24:38.924Z,14.04
2023-04-30T08:25:38.913Z,13.94
2023-04-30T08:26:38.917Z,13.93
2023-04-30T08:27:38.886Z,13.98
2023-04-30T08:28:38.876Z,13.99
2023-04-30T08:29:38.870Z,14.06
2023-04-30T08:30:38.868Z,14.13
2023-04-30T08:31:38.912Z,14.12
2023-04-30T08:32:38.850Z,14.17
2023-04-30T08:33:38.813Z,14.34
2023-04-30T08:34:38.806Z,14.20
2023-04-30T08:35:38.787Z,14.24
2023-04-30T08:36:38.798Z,14.35
2023-04-30T08:37:38.779Z,14.49
2023-04-30T08:38:38.766Z,14.61
2023-04-30T08:39:38.749Z,14.59
2023-04-30T08:40:51.109Z,14.59
2023-04-30T08:41:38.743Z,14.69
2023-04-30T08:42:38.710Z,14.83
2023-04-30T08:43:38.698Z,14.95
2023-04-30T08:44:38.697Z,14.94
2023-04-30T08:45:38.680Z,14.82
2023-04-30T08:46:38.771Z,14.80
2023-04-30T08:47:38.702Z,14.61
2023-04-30T08:48:38.645Z,14.57
2023-04-30T08:49:38.617Z,14.59
2023-04-30T08:50:38.623Z,14.64
2023-04-30T08:51:38.732Z,14.60
2023-04-30T08:52:38.601Z,14.61
2023-04-30T08:53:38.634Z,14.42
2023-04-30T08:54:38.585Z,14.60
2023-04-30T08:55:38.573Z,14.79
2023-04-30T08:56:38.581Z,14.90
2023-04-30T08:57:38.608Z,14.91
2023-04-30T08:58:38.551Z,14.87
2023-04-30T08:59:38.514Z,15.01
2023-04-30T09:00:38.500Z,15.04
2023-04-30T09:01:38.581Z,14.94
2023-04-30T09:02:38.520Z,14.49
2023-04-30T09:03:38.548Z,14.39
2023-04-30T09:04:38.476Z,14.23
2023-04-30T09:05:38.478Z,14.24
2023-04-30T09:06:38.522Z,14.34
2023-04-30T09:07:39.880Z,14.49
2023-04-30T09:08:38.411Z,14.82
2023-04-30T09:09:38.398Z,14.91
2023-04-30T09:10:38.396Z,15.18
2023-04-30T09:11:38.392Z,15.46
2023-04-30T09:12:38.368Z,15.52
2023-04-30T09:13:38.349Z,15.07
2023-04-30T09:14:38.355Z,14.86
2023-04-30T09:15:38.379Z,14.97
2023-04-30T09:16:38.341Z,14.97
2023-04-30T09:17:38.356Z,15.04
2023-04-30T09:18:38.309Z,15.18
2023-04-30T09:19:38.288Z,15.46
2023-04-30T09:20:38.273Z,15.67
2023-04-30T09:21:38.284Z,15.93
2023-04-30T09:22:38.259Z,16.06
2023-04-30T09:23:38.264Z,16.08
2023-04-30T09:24:38.234Z,16.30
2023-04-30T09:25:38.214Z,16.41
2023-04-30T09:26:38.232Z,16.63
2023-04-30T09:27:38.197Z,16.81
2023-04-30T09:28:38.179Z,16.78
2023-04-30T09:29:38.173Z,16.57
2023-04-30T09:30:38.162Z,16.40
2023-04-30T09:31:38.346Z,16.25
2023-04-30T09:32:38.159Z,16.18
2023-04-30T09:33:38.124Z,16.10
2023-04-30T09:34:38.120Z,16.10
2023-04-30T09:35:38.101Z,16.27
2023-04-30T09:36:38.130Z,16.25
2023-04-30T09:37:38.121Z,16.10
2023-04-30T09:38:38.080Z,16.04
2023-04-30T09:39:38.056Z,16.01
2023-04-30T09:40:38.047Z,16.01
2023-04-30T09:41:38.048Z,15.76
2023-04-30T09:42:38.030Z,15.76
2023-04-30T09:43:38.016Z,15.89
2023-04-30T09:44:38.026Z,16.06
2023-04-30T09:45:37.994Z,16.11
2023-04-30T09:46:38.010Z,16.06
2023-04-30T09:47:37.999Z,15.78
2023-04-30T09:48:38.034Z,15.86
2023-04-30T09:49:37.957Z,16.11
2023-04-30T09:50:37.934Z,16.32
2023-04-30T09:51:37.945Z,16.54
2023-04-30T09:52:37.912Z,16.75
2023-04-30T09:53:37.906Z,16.92
2023-04-30T09:54:37.889Z,16.92
2023-04-30T09:55:37.874Z,17.02
2023-04-30T09:56:37.899Z,17.21
2023-04-30T09:57:37.851Z,17.06
2023-04-30T09:58:37.844Z,16.54
2023-04-30T09:59:37.833Z,16.55
2023-04-30T10:00:37.846Z,16.57
2023-04-30T10:01:40.388Z,16.57
2023-04-30T10:02:37.834Z,16.80
2023-04-30T10:03:37.795Z,17.10
2023-04-30T10:04:37.797Z,17.18
2023-04-30T10:05:37.766Z,16.96
2023-04-30T10:06:37.805Z,16.84
2023-04-30T10:07:37.731Z,16.92
2023-04-30T10:08:37.733Z,17.09
2023-04-30T10:09:37.712Z,17.14
2023-04-30T10:10:37.707Z,17.14
2023-04-30T10:11:37.710Z,17.14
2023-04-30T10:12:37.692Z,17.27
2023-04-30T10:13:37.683Z,17.38
2023-04-30T10:14:37.668Z,17.22
2023-04-30T10:15:37.652Z,17.18
2023-04-30T10:16:37.757Z,17.05
2023-04-30T10:17:37.703Z,17.06
2023-04-30T10:18:37.626Z,17.21
2023-04-30T10:19:37.621Z,17.36
2023-04-30T10:20:37.609Z,17.55
2023-04-30T10:21:37.600Z,17.39
2023-04-30T10:22:37.566Z,16.95
2023-04-30T10:23:37.558Z,16.55
2023-04-30T10:24:37.553Z,16.11
2023-04-30T10:25:37.552Z,16.27
2023-04-30T10:26:37.552Z,16.52
2023-04-30T10:27:37.514Z,16.78
2023-04-30T10:28:37.508Z,16.84
2023-04-30T10:29:37.490Z,17.15
2023-04-30T10:30:37.486Z,17.22
2023-04-30T10:31:37.538Z,17.38
2023-04-30T10:32:37.489Z,17.45
2023-04-30T10:33:37.442Z,16.92
2023-04-30T10:34:37.444Z,16.81
2023-04-30T10:35:37.430Z,17.05
2023-04-30T10:36:37.447Z,17.15
2023-04-30T10:37:37.408Z,17.24
2023-04-30T10:38:37.398Z,17.43
2023-04-30T10:39:37.388Z,17.77
2023-04-30T10:40:37.375Z,17.94
2023-04-30T10:41:37.715Z,17.99
2023-04-30T10:42:37.350Z,18.25
2023-04-30T10:43:37.335Z,18.34
2023-04-30T10:44:37.350Z,18.44
2023-04-30T10:45:37.346Z,18.49
2023-04-30T10:46:37.377Z,18.39
2023-04-30T10:47:37.296Z,18.21
2023-04-30T10:48:37.274Z,18.26
2023-04-30T10:49:37.294Z,18.38
2023-04-30T10:50:37.262Z,18.32
2023-04-30T10:51:37.262Z,18.11
2023-04-30T10:52:37.232Z,17.89
2023-04-30T10:53:37.227Z,17.65
2023-04-30T10:54:37.241Z,17.77
2023-04-30T10:55:37.200Z,17.73
2023-04-30T10:56:37.212Z,17.86
2023-04-30T10:57:37.176Z,18.07
2023-04-30T10:58:37.181Z,18.19
2023-04-30T10:59:37.169Z,18.39
2023-04-30T11:00:37.146Z,18.57
2023-04-30T11:01:37.218Z,18.47
2023-04-30T11:02:37.182Z,18.47
2023-04-30T11:03:37.142Z,18.20
2023-04-30T11:04:37.125Z,18.13
2023-04-30T11:05:37.091Z,18.23
2023-04-30T11:06:37.140Z,17.86
2023-04-30T11:07:37.060Z,17.46
2023-04-30T11:08:37.068Z,17.51
2023-04-30T11:09:37.042Z,17.79
2023-04-30T11:10:37.032Z,17.53
2023-04-30T11:11:37.044Z,17.25
2023-04-30T11:12:37.028Z,17.55
2023-04-30T11:13:36.997Z,17.71
2023-04-30T11:14:36.995Z,17.51
2023-04-30T11:15:37.012Z,17.76
2023-04-30T11:16:37.012Z,17.99
2023-04-30T11:17:37.030Z,18.16
2023-04-30T11:18:37.682Z,18.39
2023-04-30T11:19:36.945Z,18.62
2023-04-30T11:20:36.919Z,18.59
2023-04-30T11:21:36.915Z,18.36
2023-04-30T11:22:36.927Z,18.31
2023-04-30T11:23:41.629Z,18.23
2023-04-30T11:24:36.890Z,18.23
2023-04-30T11:25:36.851Z,18.23
2023-04-30T11:26:36.872Z,18.23
2023-04-30T11:27:36.831Z,18.31
2023-04-30T11:28:36.823Z,18.29
2023-04-30T11:29:36.857Z,18.41
2023-04-30T11:30:36.803Z,18.50
2023-04-30T11:31:36.854Z,18.65
2023-04-30T11:32:36.855Z,18.84
2023-04-30T11:33:36.763Z,19.05
2023-04-30T11:34:36.761Z,18.94
2023-04-30T11:35:36.746Z,18.87
2023-04-30T11:36:36.754Z,18.97
2023-04-30T11:37:36.717Z,19.28
2023-04-30T11:38:36.703Z,19.46
2023-04-30T11:39:36.693Z,19.52
2023-04-30T11:40:36.693Z,19.49
2023-04-30T11:41:36.688Z,19.35
2023-04-30T11:42:36.669Z,19.05
2023-04-30T11:43:36.651Z,19.07
2023-04-30T11:44:36.641Z,18.91
2023-04-30T11:45:36.626Z,18.76
2023-04-30T11:46:36.656Z,18.62
2023-04-30T11:47:36.617Z,18.75
2023-04-30T11:48:36.622Z,18.86
2023-04-30T11:49:36.581Z,18.97
2023-04-30T11:50:36.586Z,19.23
2023-04-30T11:51:36.593Z,19.28
2023-04-30T11:52:36.551Z,19.43
2023-04-30T11:53:36.530Z,19.57
2023-04-30T11:54:36.542Z,19.78
2023-04-30T11:55:36.535Z,20.12
2023-04-30T11:56:36.528Z,20.26
2023-04-30T11:57:36.492Z,20.31
2023-04-30T11:58:36.486Z,20.19
2023-04-30T11:59:36.469Z,20.15
2023-04-30T12:00:36.460Z,20.19
2023-04-30T12:01:36.514Z,20.20
2023-04-30T12:02:36.523Z,20.17
2023-04-30T12:03:36.504Z,20.25
2023-04-30T12:04:36.449Z,19.78
2023-04-30T12:05:36.401Z,19.76
2023-04-30T12:06:36.440Z,19.65
2023-04-30T12:07:36.386Z,19.64
2023-04-30T12:08:36.375Z,19.76
2023-04-30T12:09:36.365Z,19.80
2023-04-30T12:10:36.365Z,19.90
2023-04-30T12:11:36.367Z,19.61
2023-04-30T12:12:36.323Z,19.68
2023-04-30T12:13:36.316Z,19.65
2023-04-30T12:14:36.313Z,19.82
2023-04-30T12:15:36.296Z,19.53
2023-04-30T12:16:36.341Z,19.47
2023-04-30T12:17:36.306Z,19.60
2023-04-30T12:18:36.266Z,19.90
2023-04-30T12:19:36.241Z,20.25
2023-04-30T12:20:36.245Z,20.26
2023-04-30T12:21:36.238Z,20.26
2023-04-30T12:22:36.224Z,20.40
2023-04-30T12:23:36.199Z,20.61
2023-04-30T12:24:36.199Z,20.85
2023-04-30T12:25:36.185Z,20.85
2023-04-30T12:26:36.193Z,20.73
2023-04-30T12:27:36.156Z,20.71
2023-04-30T12:28:36.145Z,20.26
2023-04-30T12:29:36.138Z,19.64
2023-04-30T12:30:36.136Z,19.68
2023-04-30T12:31:36.177Z,19.67
2023-04-30T12:32:36.108Z,19.72
2023-04-30T12:33:36.086Z,19.82
2023-04-30T12:34:36.113Z,19.76
2023-04-30T12:35:36.062Z,19.78
2023-04-30T12:36:36.075Z,19.95
2023-04-30T12:37:36.049Z,20.05
2023-04-30T12:38:36.047Z,20.16
2023-04-30T12:39:36.025Z,20.34
2023-04-30T12:40:36.014Z,20.60
2023-04-30T12:41:36.000Z,20.60
2023-04-30T12:42:36.049Z,20.57
2023-04-30T12:43:35.985Z,20.46
2023-04-30T12:44:35.968Z,20.25
2023-04-30T12:45:35.947Z,19.71
2023-04-30T12:46:35.960Z,19.60
2023-04-30T12:47:38.210Z,19.55
2023-04-30T12:48:35.919Z,19.28
2023-04-30T12:49:35.917Z,19.13
2023-04-30T12:50:35.900Z,19.27
2023-04-30T12:51:35.886Z,19.42
2023-04-30T12:52:35.894Z,19.78
2023-04-30T12:53:35.865Z,20.12
2023-04-30T12:54:35.857Z,20.60
2023-04-30T12:55:35.845Z,21.03
2023-04-30T12:56:35.830Z,20.93
2023-04-30T12:57:35.844Z,21.09
2023-04-30T12:58:37.601Z,21.27
2023-04-30T12:59:35.820Z,20.96
2023-04-30T13:00:35.778Z,20.88
2023-04-30T13:01:35.799Z,20.94
2023-04-30T13:02:35.807Z,20.46
2023-04-30T13:03:35.826Z,20.42
2023-04-30T13:04:35.741Z,20.34
2023-04-30T13:05:35.729Z,20.26